createdAt,value
2023-04-20T00:01:25.540Z,90.10
2023-04-20T00:03:52.676Z,90.10
2023-04-20T00:06:21.787Z,90.20
2023-04-20T00:08:48.944Z,90.10
2023-04-20T00:11:15.757Z,90.20
2023-04-20T00:13:43.068Z,90.20
2023-04-20T00:16:09.913Z,90.10
2023-04-20T00:18:36.668Z,90.00
2023-04-20T00:21:04.200Z,90.10
2023-04-20T00:23:30.935Z,90.00
2023-04-20T00:25:57.679Z,90.00
2023-04-20T00:28:24.472Z,90.10
2023-04-20T00:30:51.207Z,90.00
2023-04-20T00:33:18.005Z,90.00
2023-04-20T00:35:44.799Z,90.10
2023-04-20T00:38:11.529Z,90.10
2023-04-20T00:40:38.462Z,90.10
2023-04-20T00:43:12.834Z,90.00
2023-04-20T00:45:39.744Z,89.90
2023-04-20T00:48:07.696Z,89.90
2023-04-20T00:50:35.327Z,89.90
2023-04-20T00:53:03.198Z,90.00
2023-04-20T00:55:31.208Z,89.90
2023-04-20T00:57:58.890Z,90.00
2023-04-20T01:00:27.317Z,88.70
2023-04-20T01:02:54.321Z,90.00
2023-04-20T01:05:21.775Z,89.90
2023-04-20T01:07:49.258Z,90.00
2023-04-20T01:10:16.209Z,90.00
2023-04-20T01:12:42.945Z,90.00
2023-04-20T01:15:10.776Z,90.00
2023-04-20T01:17:40.460Z,90.00
2023-04-20T01:20:11.588Z,90.00
2023-04-20T01:22:46.326Z,90.00
2023-04-20T01:25:13.255Z,89.80
2023-04-20T01:27:40.026Z,89.80
2023-04-20T01:30:07.690Z,89.50
2023-04-20T01:32:34.860Z,89.50
2023-04-20T01:35:03.167Z,89.40
2023-04-20T01:37:30.476Z,89.50
2023-04-20T01:39:57.687Z,89.70
2023-04-20T01:42:24.470Z,89.90
2023-04-20T01:44:51.176Z,90.00
2023-04-20T01:47:19.071Z,90.00
2023-04-20T01:49:45.787Z,90.00
2023-04-20T01:52:12.559Z,90.00
2023-04-20T01:54:39.344Z,90.00
2023-04-20T01:57:06.089Z,90.00
2023-04-20T01:59:32.949Z,90.10
2023-04-20T02:01:59.749Z,90.00
2023-04-20T02:04:26.717Z,90.10
2023-04-20T02:06:53.498Z,90.10
2023-04-20T02:09:20.761Z,90.20
2023-04-20T02:11:47.486Z,90.20
2023-04-20T02:14:14.278Z,90.20
2023-04-20T02:16:42.788Z,90.20
2023-04-20T02:19:09.932Z,90.20
2023-04-20T02:21:36.703Z,90.10
2023-04-20T02:24:03.877Z,90.10
2023-04-20T02:26:30.601Z,90.10
2023-04-20T02:28:57.417Z,90.10
2023-04-20T02:31:24.245Z,90.10
2023-04-20T02:33:51.494Z,90.20
2023-04-20T02:36:18.284Z,90.20
2023-04-20T02:38:45.025Z,90.20
2023-04-20T02:41:11.747Z,90.30
2023-04-20T02:43:38.484Z,90.20
2023-04-20T02:46:05.378Z,90.30
2023-04-20T02:48:32.256Z,90.20
2023-04-20T02:50:58.982Z,90.20
2023-04-20T02:53:25.844Z,90.20
2023-04-20T02:55:52.568Z,90.20
2023-04-20T02:58:19.299Z,90.10
2023-04-20T03:00:46.096Z,90.20
2023-04-20T03:03:12.956Z,90.20
2023-04-20T03:05:39.812Z,90.20
2023-04-20T03:08:07.280Z,90.20
2023-04-20T03:10:34.008Z,90.30
2023-04-20T03:13:00.755Z,90.20
2023-04-20T03:15:27.499Z,90.20
2023-04-20T03:17:54.233Z,90.20
2023-04-20T03:20:20.980Z,90.30
2023-04-20T03:22:47.737Z,90.00
2023-04-20T03:25:14.471Z,90.20
2023-04-20T03:27:41.167Z,90.10
2023-04-20T03:30:08.955Z,90.10
2023-04-20T03:32:36.477Z,90.00
2023-04-20T03:35:03.583Z,90.00
2023-04-20T03:37:31.755Z,90.00
2023-04-20T03:39:58.506Z,90.00
2023-04-20T03:42:25.893Z,90.00
2023-04-20T03:44:52.695Z,90.00
2023-04-20T03:47:19.457Z,90.00
2023-04-20T03:49:46.198Z,90.00
2023-04-20T03:52:13.171Z,90.10
2023-04-20T03:54:39.955Z,89.80
2023-04-20T03:57:06.756Z,90.10
2023-04-20T03:59:33.535Z,90.20
2023-04-20T04:02:02.589Z,90.30
2023-04-20T04:04:29.957Z,90.30
2023-04-20T04:06:56.889Z,90.30
2023-04-20T04:09:26.507Z,90.30
2023-04-20T04:11:53.235Z,90.30
2023-04-20T04:14:20.113Z,90.20
2023-04-20T04:16:46.955Z,90.20
2023-04-20T04:19:13.700Z,90.20
2023-04-20T04:21:41.369Z,89.90
2023-04-20T04:24:08.299Z,90.20
2023-04-20T04:26:35.105Z,90.10
2023-04-20T04:29:02.063Z,90.10
2023-04-20T04:31:28.979Z,90.10
2023-04-20T04:33:56.360Z,90.00
2023-04-20T04:36:24.245Z,90.00
2023-04-20T04:38:51.382Z,89.40
2023-04-20T04:41:18.688Z,90.00
2023-04-20T04:43:46.204Z,90.00
2023-04-20T04:46:14.438Z,89.90
2023-04-20T04:48:42.306Z,89.90
2023-04-20T04:51:09.721Z,89.90
2023-04-20T04:53:36.876Z,90.00
2023-04-20T04:56:04.893Z,90.00
2023-04-20T04:58:32.060Z,89.90
2023-04-20T05:00:58.809Z,90.00
2023-04-20T05:03:25.939Z,90.00
2023-04-20T05:05:52.917Z,90.00
2023-04-20T05:08:21.346Z,90.00
2023-04-20T05:10:48.116Z,90.00
2023-04-20T05:13:14.865Z,90.10
2023-04-20T05:15:43.409Z,90.10
2023-04-20T05:18:11.043Z,90.10
2023-04-20T05:20:38.156Z,90.10
2023-04-20T05:23:04.918Z,90.10
2023-04-20T05:25:32.825Z,90.10
2023-04-20T05:27:59.782Z,90.00
2023-04-20T05:30:26.738Z,90.00
2023-04-20T05:32:53.512Z,90.00
2023-04-20T05:35:21.461Z,90.00
2023-04-20T05:37:48.693Z,90.00
2023-04-20T05:40:15.922Z,90.00
2023-04-20T05:42:42.894Z,90.00
2023-04-20T05:45:10.815Z,89.60
2023-04-20T05:47:37.608Z,90.00
2023-04-20T05:50:07.558Z,90.00
2023-04-20T05:52:34.429Z,90.00
2023-04-20T05:55:01.304Z,90.00
2023-04-20T05:57:28.229Z,90.00
2023-04-20T05:59:56.127Z,90.00
2023-04-20T06:02:23.082Z,90.00
2023-04-20T06:04:50.262Z,89.90
2023-04-20T06:07:17.573Z,89.90
2023-04-20T06:09:44.386Z,89.90
2023-04-20T06:12:11.201Z,89.60
2023-04-20T06:14:37.942Z,89.30
2023-04-20T06:17:04.683Z,89.40
2023-04-20T06:19:31.671Z,89.50
2023-04-20T06:22:00.703Z,89.40
2023-04-20T06:24:27.965Z,89.20
2023-04-20T06:26:54.999Z,89.10
2023-04-20T06:29:21.743Z,89.00
2023-04-20T06:31:48.557Z,88.60
2023-04-20T06:34:16.239Z,88.30
2023-04-20T06:36:43.772Z,88.40
2023-04-20T06:39:13.672Z,88.30
2023-04-20T06:41:40.565Z,88.40
2023-04-20T06:44:07.440Z,88.30
2023-04-20T06:46:34.528Z,88.30
2023-04-20T06:49:01.541Z,87.70
2023-04-20T06:51:29.181Z,88.50
2023-04-20T06:53:56.576Z,88.50
2023-04-20T06:56:24.077Z,88.30
2023-04-20T06:58:51.017Z,88.10
2023-04-20T07:01:17.841Z,88.00
2023-04-20T07:03:46.814Z,87.80
2023-04-20T07:06:13.888Z,87.90
2023-04-20T07:08:41.055Z,87.70
2023-04-20T07:11:07.807Z,87.70
2023-04-20T07:13:34.567Z,87.30
2023-04-20T07:16:01.375Z,87.40
2023-04-20T07:18:28.279Z,87.20
2023-04-20T07:20:55.284Z,87.10
2023-04-20T07:23:22.011Z,84.80
2023-04-20T07:25:48.779Z,86.70
2023-04-20T07:28:15.590Z,86.50
2023-04-20T07:30:42.322Z,86.50
2023-04-20T07:33:11.116Z,86.20
2023-04-20T07:35:37.931Z,85.90
2023-04-20T07:38:04.696Z,86.00
2023-04-20T07:40:31.426Z,85.90
2023-04-20T07:42:58.220Z,85.80
2023-04-20T07:45:25.132Z,85.50
2023-04-20T07:47:53.972Z,85.20
2023-04-20T07:50:21.661Z,82.80
2023-04-20T07:52:48.397Z,84.40
2023-04-20T07:55:15.823Z,84.40
2023-04-20T07:57:42.744Z,84.10
2023-04-20T08:00:11.526Z,83.70
2023-04-20T08:02:39.432Z,83.50
2023-04-20T08:05:06.947Z,83.20
2023-04-20T08:07:33.878Z,83.80
2023-04-20T08:10:01.383Z,83.10
2023-04-20T08:12:28.216Z,81.40
2023-04-20T08:14:55.008Z,82.90
2023-04-20T08:17:21.988Z,83.00
2023-04-20T08:19:48.727Z,82.70
2023-04-20T08:22:15.550Z,81.90
2023-04-20T08:24:42.359Z,82.80
2023-04-20T08:27:09.535Z,82.80
2023-04-20T08:29:36.706Z,82.30
2023-04-20T08:32:04.211Z,81.60
2023-04-20T08:34:31.077Z,81.30
2023-04-20T08:36:57.858Z,81.40
2023-04-20T08:39:24.633Z,81.30
2023-04-20T08:41:55.514Z,80.40
2023-04-20T08:44:23.316Z,80.00
2023-04-20T08:46:51.292Z,80.10
2023-04-20T08:49:19.898Z,80.00
2023-04-20T08:51:48.278Z,79.50
2023-04-20T08:54:16.225Z,79.60
2023-04-20T08:56:46.348Z,79.80
2023-04-20T08:59:14.439Z,79.50
2023-04-20T09:01:43.827Z,79.90
2023-04-20T09:04:23.731Z,79.70
2023-04-20T09:06:54.917Z,78.70
2023-04-20T09:09:24.268Z,80.00
2023-04-20T09:12:07.725Z,80.20
2023-04-20T09:14:48.564Z,80.20
2023-04-20T09:17:17.856Z,80.60
2023-04-20T09:19:51.979Z,81.30
2023-04-20T09:22:33.864Z,80.00
2023-04-20T09:25:11.849Z,81.00
2023-04-20T09:27:38.642Z,81.60
2023-04-20T09:30:06.880Z,82.20
2023-04-20T09:32:34.391Z,82.40
2023-04-20T09:35:01.296Z,82.60
2023-04-20T09:37:28.168Z,82.60
2023-04-20T09:40:00.761Z,82.90
2023-04-20T09:42:29.096Z,83.00
2023-04-20T09:44:57.393Z,83.30
2023-04-20T09:47:26.642Z,83.40
2023-04-20T09:49:54.963Z,83.50
2023-04-20T09:52:22.769Z,83.60
2023-04-20T09:54:51.791Z,83.70
2023-04-20T09:57:19.819Z,83.80
2023-04-20T09:59:47.615Z,84.00
2023-04-20T10:02:15.018Z,84.00
2023-04-20T10:04:58.929Z,83.70
2023-04-20T10:07:32.002Z,83.10
2023-04-20T10:10:13.358Z,83.00
2023-04-20T10:12:55.801Z,82.40
2023-04-20T10:15:24.318Z,81.40
2023-04-20T10:17:51.651Z,82.20
2023-04-20T10:20:23.206Z,81.70
2023-04-20T10:22:52.908Z,79.30
2023-04-20T10:25:24.728Z,81.40
2023-04-20T10:28:01.635Z,81.40
2023-04-20T10:30:29.393Z,79.90
2023-04-20T10:33:13.345Z,81.20
2023-04-20T10:35:55.055Z,79.80
2023-04-20T10:38:35.782Z,79.80
2023-04-20T10:41:09.705Z,78.90
2023-04-20T10:43:38.966Z,78.80
2023-04-20T10:46:22.315Z,77.10
2023-04-20T10:48:55.141Z,77.90
2023-04-20T10:51:22.800Z,78.30
2023-04-20T10:54:07.731Z,78.20
2023-04-20T10:56:47.141Z,76.90
2023-04-20T10:59:20.854Z,76.90
2023-04-20T11:01:48.487Z,77.50
2023-04-20T11:04:22.024Z,75.50
2023-04-20T11:06:48.821Z,78.10
2023-04-20T11:09:26.350Z,78.60
2023-04-20T11:12:02.939Z,77.20
2023-04-20T11:14:38.433Z,77.70
2023-04-20T11:17:06.672Z,78.30
2023-04-20T11:19:36.923Z,78.70
2023-04-20T11:22:06.339Z,77.20
2023-04-20T11:24:34.548Z,77.90
2023-04-20T11:27:04.439Z,76.50
2023-04-20T11:29:34.804Z,76.90
2023-04-20T11:32:08.102Z,76.80
2023-04-20T11:34:38.428Z,76.80
2023-04-20T11:37:10.465Z,76.50
2023-04-20T11:39:38.157Z,76.20
2023-04-20T11:42:06.258Z,76.70
2023-04-20T11:44:33.985Z,75.60
2023-04-20T11:47:01.785Z,76.40
2023-04-20T11:49:29.608Z,76.10
2023-04-20T11:51:56.354Z,75.70
2023-04-20T11:54:24.188Z,75.70
2023-04-20T11:56:51.605Z,75.60
2023-04-20T11:59:20.054Z,75.50
2023-04-20T12:01:48.016Z,75.60
2023-04-20T12:04:15.871Z,75.40
2023-04-20T12:06:43.208Z,75.20
2023-04-20T12:09:09.971Z,75.10
2023-04-20T12:11:36.788Z,75.00
2023-04-20T12:14:04.574Z,71.60
2023-04-20T12:16:31.770Z,73.50
2023-04-20T12:18:58.896Z,73.70
2023-04-20T12:21:25.696Z,74.30
2023-04-20T12:23:52.892Z,74.50
2023-04-20T12:26:19.627Z,74.40
2023-04-20T12:28:46.339Z,73.80
2023-04-20T12:31:13.286Z,73.60
2023-04-20T12:33:40.051Z,73.60
2023-04-20T12:36:06.957Z,73.40
2023-04-20T12:38:33.747Z,73.30
2023-04-20T12:41:00.715Z,73.30
2023-04-20T12:43:28.534Z,72.60
2023-04-20T12:45:55.291Z,73.20
2023-04-20T12:48:22.144Z,72.70
2023-04-20T12:50:49.523Z,72.10
2023-04-20T12:53:16.347Z,72.50
2023-04-20T12:55:43.145Z,72.50
2023-04-20T12:58:09.876Z,72.40
2023-04-20T13:00:36.679Z,72.50
2023-04-20T13:03:03.935Z,72.10
2023-04-20T13:05:30.898Z,72.30
2023-04-20T13:07:57.770Z,72.50
2023-04-20T13:10:24.635Z,72.20
2023-04-20T13:12:54.260Z,72.40
2023-04-20T13:15:31.834Z,72.10
2023-04-20T13:18:06.041Z,71.80
2023-04-20T13:20:33.753Z,71.50
2023-04-20T13:23:01.698Z,71.70
2023-04-20T13:25:32.698Z,71.60
2023-04-20T13:28:02.854Z,71.40
2023-04-20T13:30:29.732Z,71.10
2023-04-20T13:32:56.552Z,71.00
2023-04-20T13:35:24.503Z,71.00
2023-04-20T13:37:51.509Z,68.80
2023-04-20T13:40:18.280Z,69.00
2023-04-20T13:42:45.072Z,68.30
2023-04-20T13:45:12.758Z,67.70
2023-04-20T13:47:40.395Z,68.40
2023-04-20T13:50:08.532Z,68.30
2023-04-20T13:52:35.671Z,67.40
2023-04-20T13:55:02.425Z,67.50
2023-04-20T13:57:31.615Z,67.00
2023-04-20T14:00:00.737Z,67.90
2023-04-20T14:02:29.153Z,67.10
2023-04-20T14:04:56.768Z,66.30
2023-04-20T14:07:23.746Z,66.30
2023-04-20T14:09:50.998Z,67.00
2023-04-20T14:12:18.814Z,67.30
2023-04-20T14:14:46.098Z,66.90
2023-04-20T14:17:13.037Z,66.80
2023-04-20T14:19:39.795Z,66.50
2023-04-20T14:22:06.534Z,65.60
2023-04-20T14:24:33.394Z,66.30
2023-04-20T14:27:00.488Z,65.60
2023-04-20T14:29:27.312Z,65.50
2023-04-20T14:31:54.284Z,66.00
2023-04-20T14:34:21.075Z,65.50
2023-04-20T14:36:48.357Z,65.90
2023-04-20T14:39:15.567Z,65.70
2023-04-20T14:41:42.328Z,66.20
2023-04-20T14:44:09.036Z,65.40
2023-04-20T14:46:36.029Z,66.00
2023-04-20T14:49:03.276Z,65.90
2023-04-20T14:51:30.835Z,65.30
2023-04-20T14:53:57.608Z,65.30
2023-04-20T14:56:25.265Z,65.00
2023-04-20T14:58:52.341Z,64.90
2023-04-20T15:01:19.110Z,64.50
2023-04-20T15:03:46.265Z,64.30
2023-04-20T15:06:13.437Z,64.00
2023-04-20T15:08:40.195Z,64.10
2023-04-20T15:11:06.975Z,63.40
2023-04-20T15:13:33.920Z,63.40
2023-04-20T15:16:00.700Z,63.40
2023-04-20T15:18:27.540Z,63.10
2023-04-20T15:23:22.077Z,60.50
2023-04-20T15:25:48.849Z,62.20
2023-04-20T15:28:15.753Z,61.60
2023-04-20T15:30:42.650Z,61.00
2023-04-20T15:33:09.594Z,61.30
2023-04-20T15:35:36.698Z,61.00
2023-04-20T15:38:03.805Z,61.30
2023-04-20T15:40:30.632Z,61.50
2023-04-20T15:42:57.361Z,61.30
2023-04-20T15:45:24.220Z,61.50
2023-04-20T15:47:51.411Z,61.30
2023-04-20T15:50:18.805Z,61.70
2023-04-20T15:52:49.408Z,60.30
2023-04-20T15:55:16.571Z,61.00
2023-04-20T15:57:44.480Z,61.30
2023-04-20T16:00:12.591Z,60.60
2023-04-20T16:02:40.240Z,61.00
2023-04-20T16:05:08.079Z,61.00
2023-04-20T16:07:35.013Z,60.70
2023-04-20T16:10:02.993Z,61.10
2023-04-20T16:12:29.771Z,61.20
2023-04-20T16:14:57.254Z,61.00
2023-04-20T16:17:24.217Z,61.20
2023-04-20T16:19:51.095Z,61.30
2023-04-20T16:22:17.881Z,59.30
2023-04-20T16:24:44.983Z,61.70
2023-04-20T16:27:11.820Z,61.60
2023-04-20T16:29:38.759Z,61.70
2023-04-20T16:32:06.287Z,62.30
2023-04-20T16:34:33.390Z,62.30
2023-04-20T16:37:00.120Z,62.30
2023-04-20T16:39:26.890Z,62.20
2023-04-20T16:41:54.153Z,62.50
2023-04-20T16:44:21.248Z,62.00
2023-04-20T16:46:51.709Z,62.40
2023-04-20T16:49:18.966Z,62.40
2023-04-20T16:51:45.851Z,62.20
2023-04-20T16:54:12.885Z,62.40
2023-04-20T16:56:40.576Z,62.50
2023-04-20T16:59:07.926Z,62.50
2023-04-20T17:01:34.885Z,62.50
2023-04-20T17:06:29.588Z,61.50
2023-04-20T17:09:01.337Z,62.20
2023-04-20T17:11:28.150Z,61.90
2023-04-20T17:13:54.943Z,61.50
2023-04-20T17:16:21.733Z,61.60
2023-04-20T17:18:48.490Z,61.70
2023-04-20T17:21:15.266Z,60.30
2023-04-20T17:23:42.068Z,61.60
2023-04-20T17:26:09.029Z,61.60
2023-04-20T17:28:35.923Z,61.80
2023-04-20T17:31:02.720Z,62.10
2023-04-20T17:33:29.511Z,62.30
2023-04-20T17:35:57.099Z,62.40
2023-04-20T17:38:24.195Z,62.50
2023-04-20T17:40:50.936Z,62.50
2023-04-20T17:43:17.685Z,62.70
2023-04-20T17:45:45.221Z,62.80
2023-04-20T17:48:12.078Z,62.90
2023-04-20T17:50:38.881Z,63.10
2023-04-20T17:53:06.859Z,63.30
2023-04-20T17:55:34.879Z,62.70
2023-04-20T17:58:01.926Z,63.50
2023-04-20T18:00:28.822Z,62.80
2023-04-20T18:02:56.092Z,63.80
2023-04-20T18:05:23.055Z,63.90
2023-04-20T18:07:49.827Z,64.20
2023-04-20T18:10:16.622Z,64.10
2023-04-20T18:12:44.904Z,64.20
2023-04-20T18:15:12.740Z,64.30
2023-04-20T18:17:39.570Z,64.30
2023-04-20T18:20:08.497Z,64.40
2023-04-20T18:22:37.121Z,63.30
2023-04-20T18:25:04.731Z,64.90
2023-04-20T18:27:31.534Z,65.00
2023-04-20T18:30:01.276Z,65.20
2023-04-20T18:32:28.589Z,65.30
2023-04-20T18:34:55.370Z,65.50
2023-04-20T18:37:22.119Z,65.60
2023-04-20T18:39:48.847Z,65.80
2023-04-20T18:42:15.604Z,65.90
2023-04-20T18:44:42.384Z,66.10
2023-04-20T18:47:09.253Z,66.30
2023-04-20T18:49:36.355Z,66.40
2023-04-20T18:52:04.527Z,66.40
2023-04-20T18:54:31.314Z,66.50
2023-04-20T18:56:58.256Z,66.70
2023-04-20T18:59:25.060Z,66.80
2023-04-20T19:01:52.515Z,66.90
2023-04-20T19:04:20.441Z,67.10
2023-04-20T19:06:47.692Z,67.20
2023-04-20T19:09:14.899Z,67.30
2023-04-20T19:11:42.062Z,67.40
2023-04-20T19:14:08.983Z,67.40
2023-04-20T19:16:35.882Z,67.50
2023-04-20T19:19:03.856Z,67.60
2023-04-20T19:21:32.302Z,67.70
2023-04-20T19:23:59.120Z,67.80
2023-04-20T19:26:25.982Z,67.80
2023-04-20T19:28:53.437Z,68.00
2023-04-20T19:31:20.299Z,68.00
2023-04-20T19:33:47.191Z,68.10
2023-04-20T19:36:13.990Z,68.30
2023-04-20T19:38:40.950Z,67.70
2023-04-20T19:41:07.748Z,68.40
2023-04-20T19:46:03.248Z,67.90
2023-04-20T19:48:30.089Z,68.60
2023-04-20T19:50:57.727Z,68.70
2023-04-20T19:55:52.829Z,68.20
2023-04-20T19:58:19.709Z,68.90
2023-04-20T20:00:46.675Z,69.00
2023-04-20T20:03:15.790Z,69.50
2023-04-20T20:05:44.514Z,69.40
2023-04-20T20:08:11.650Z,69.40
2023-04-20T20:10:38.527Z,69.50
2023-04-20T20:13:05.770Z,69.60
2023-04-20T20:15:32.563Z,69.70
2023-04-20T20:17:59.594Z,69.70
2023-04-20T20:20:32.357Z,69.70
2023-04-20T20:23:00.405Z,69.00
2023-04-20T20:25:27.227Z,70.00
2023-04-20T20:27:54.319Z,70.00
2023-04-20T20:30:21.230Z,70.10
2023-04-20T20:32:48.224Z,70.10
2023-04-20T20:35:15.082Z,70.10
2023-04-20T20:37:42.203Z,70.20
2023-04-20T20:40:15.081Z,69.60
2023-04-20T20:45:12.575Z,69.70
2023-04-20T20:47:41.338Z,70.30
2023-04-20T20:50:10.538Z,70.40
2023-04-20T20:52:39.196Z,70.40
2023-04-20T20:55:08.836Z,70.60
2023-04-20T20:57:36.041Z,70.60
2023-04-20T21:00:08.180Z,70.60
2023-04-20T21:02:35.820Z,70.70
2023-04-20T21:05:03.670Z,70.80
2023-04-20T21:07:30.408Z,70.90
2023-04-20T21:09:57.175Z,70.90
2023-04-20T21:12:23.933Z,70.90
2023-04-20T21:14:52.199Z,70.70
2023-04-20T21:17:19.636Z,70.90
2023-04-20T21:19:46.351Z,70.90
2023-04-20T21:22:13.127Z,70.70
2023-04-20T21:24:39.911Z,70.90
2023-04-20T21:27:06.675Z,70.90
2023-04-20T21:32:00.651Z,70.20
2023-04-20T21:34:27.736Z,70.90
2023-04-20T21:36:54.658Z,70.90
2023-04-20T21:39:21.469Z,70.90
2023-04-20T21:44:15.393Z,70.20
2023-04-20T21:46:42.176Z,70.80
2023-04-20T21:49:08.987Z,70.70
2023-04-20T21:51:35.814Z,70.90
2023-04-20T21:54:02.597Z,70.90
2023-04-20T21:56:29.307Z,70.70
2023-04-20T21:58:56.061Z,70.80
2023-04-20T22:01:22.876Z,70.80
2023-04-20T22:03:49.890Z,70.80
2023-04-20T22:06:16.692Z,70.60
2023-04-20T22:08:44.737Z,70.70
2023-04-20T22:11:11.629Z,70.60
2023-04-20T22:13:38.340Z,70.70
2023-04-20T22:16:06.054Z,70.70
2023-04-20T22:18:32.900Z,70.80
2023-04-20T22:20:59.632Z,71.00
2023-04-20T22:23:26.373Z,70.90
2023-04-20T22:25:53.091Z,70.90
2023-04-20T22:28:19.808Z,71.00
2023-04-20T22:30:46.574Z,71.00
2023-04-20T22:33:13.284Z,71.10
2023-04-20T22:35:40.069Z,71.20
2023-04-20T22:38:06.866Z,71.20
2023-04-20T22:40:33.601Z,71.00
2023-04-20T22:43:00.360Z,71.20
2023-04-20T22:45:27.135Z,71.20
2023-04-20T22:47:54.286Z,71.20
2023-04-20T22:50:21.198Z,71.30
2023-04-20T22:52:49.571Z,71.40
2023-04-20T22:55:16.423Z,71.40
2023-04-20T22:57:43.412Z,71.40
2023-04-20T23:02:41.487Z,70.80
2023-04-20T23:05:09.264Z,71.40
2023-04-20T23:07:36.359Z,71.50
2023-04-20T23:10:04.624Z,71.50
2023-04-20T23:12:32.406Z,71.40
2023-04-20T23:15:02.715Z,71.40
2023-04-20T23:17:30.765Z,71.40
2023-04-20T23:19:57.622Z,71.40
2023-04-20T23:22:24.494Z,70.40
2023-04-20T23:24:51.314Z,71.50
2023-04-20T23:29:45.374Z,70.80
2023-04-20T23:32:12.258Z,71.50
2023-04-20T23:34:39.026Z,71.50
2023-04-20T23:37:06.160Z,71.50
2023-04-20T23:39:37.624Z,71.40
2023-04-20T23:42:05.544Z,71.30
2023-04-20T23:44:32.301Z,71.50
2023-04-20T23:46:59.065Z,71.50
2023-04-20T23:49:25.869Z,71.50
2023-04-20T23:51:52.797Z,70.90
2023-04-20T23:54:19.803Z,71.60
2023-04-20T23:56:46.637Z,71.60
2023-04-20T23:59:13.387Z,71.70
